Gulfport, MS

6:08 AM CST on December 27, 2014 (GMT -0600)
Gulfport-Biloxi Regional | Change Station
CLOSE
Current Station
Airport
Location: Gulfport,
Elevation: 26 ft
Nearby Weather Stations
Active Advisory: Areal Flood Watch

Elev 26 ft 30.41 °N, 89.07 °W | Updated 15 minutes ago

Overcast
Overcast
63 °F
Feels Like 63 °F
N
17
Wind Variable Wind from ESE

Today
High -- | Low -- °F
--% Chance of Precip.
Yesterday
High -- | Low -- °F
Precip. -- in
6:51 AM 5:03 PM
Waxing Crescent, 36% visible
Pressure 30.15 in
Visibility 10.0 miles
Clouds Overcast 2000 ft
Dew Point 60 °F
Humidity 90%
Rainfall 0.00 in
Snow Depth Not available.
UV 0 out of 12
Pollen 4.80 out of 12
Air Quality Not available.
Flu Activity Not available.
METAR KGPT 271153Z AUTO 12015KT 10SM OVC020 17/16 A3015 RMK AO2 SLP209 60000 T01720156 10172 20161 53006 $

More Conditions Fewer Conditions

Pressure 30.15 in
Visibility 10.0 miles
Clouds Overcast 2000 ft
Dew Point 60 °F
Humidity 90%
Rainfall 0.00 in
Snow Depth Not available.
UV 0 out of 12
Pollen 4.80 out of 12
Air Quality Not available.
Flu Activity Not available.
METAR KGPT 271153Z AUTO 12015KT 10SM OVC020 17/16 A3015 RMK AO2 SLP209 60000 T01720156 10172 20161 53006 $

More Conditions Fewer Conditions

10-Day Weather Forecast

Almanac

Astronomy

Dec. 27, 2014 Rise Set
Actual Time
Civil Twilight
Nautical Twilight
Astronomical Twilight
Moon
Length of Visible Light
Length of Day
Tomorrow will be .
, % of the Moon is Illuminated

Today's Extremes

State Highs State Lows

Community

WunderPhotos

Upload Photos

1,780,885 photos uploaded!

WunderBlogs® & News

Nearby

Air Quality

  Air Quality AQ Index Pollutant
Not available.

Snow Depth

Station Depth Elevation

Earthquake Activity

City Distance Mag. Time & Date
Minimum magnitude displayed is 2.5.

Coastal Water Temperatures

Place Temperature

Nearby Weather Stations